sensor_id;sensor_type;location;lat;lon;timestamp;P1;durP1;ratioP1;P2;durP2;ratioP2
74912;SDS011;63878;55.624;37.304;2024-01-06T00:02:56;5.50;;;2.88;;
74912;SDS011;63878;55.624;37.304;2024-01-06T00:12:57;9.65;;;4.35;;
74912;SDS011;63878;55.624;37.304;2024-01-06T00:22:57;10.07;;;4.63;;
74912;SDS011;63878;55.624;37.304;2024-01-06T00:32:58;6.40;;;4.00;;
74912;SDS011;63878;55.624;37.304;2024-01-06T00:42:58;10.60;;;4.85;;
74912;SDS011;63878;55.624;37.304;2024-01-06T00:53:00;9.77;;;4.43;;
74912;SDS011;63878;55.624;37.304;2024-01-06T01:03:01;13.57;;;6.10;;
74912;SDS011;63878;55.624;37.304;2024-01-06T01:13:02;10.63;;;5.10;;
74912;SDS011;63878;55.624;37.304;2024-01-06T01:23:03;10.90;;;5.43;;
74912;SDS011;63878;55.624;37.304;2024-01-06T01:33:04;11.33;;;5.33;;
74912;SDS011;63878;55.624;37.304;2024-01-06T01:43:04;7.93;;;3.77;;
74912;SDS011;63878;55.624;37.304;2024-01-06T01:53:05;11.40;;;5.18;;
74912;SDS011;63878;55.624;37.304;2024-01-06T02:03:06;12.85;;;5.60;;
74912;SDS011;63878;55.624;37.304;2024-01-06T02:13:10;11.60;;;5.30;;
74912;SDS011;63878;55.624;37.304;2024-01-06T02:23:11;12.30;;;6.38;;
74912;SDS011;63878;55.624;37.304;2024-01-06T02:33:11;11.68;;;5.40;;
74912;SDS011;63878;55.624;37.304;2024-01-06T02:43:12;13.77;;;6.13;;
74912;SDS011;63878;55.624;37.304;2024-01-06T02:53:13;10.95;;;4.60;;
74912;SDS011;63878;55.624;37.304;2024-01-06T03:03:13;14.27;;;5.85;;
74912;SDS011;63878;55.624;37.304;2024-01-06T03:13:13;13.02;;;5.28;;
74912;SDS011;63878;55.624;37.304;2024-01-06T03:23:14;15.02;;;4.90;;
74912;SDS011;63878;55.624;37.304;2024-01-06T03:33:15;10.45;;;4.95;;
74912;SDS011;63878;55.624;37.304;2024-01-06T03:43:15;11.93;;;5.50;;
74912;SDS011;63878;55.624;37.304;2024-01-06T03:53:16;12.57;;;4.80;;
74912;SDS011;63878;55.624;37.304;2024-01-06T04:03:16;11.33;;;5.13;;
74912;SDS011;63878;55.624;37.304;2024-01-06T04:13:17;17.17;;;6.57;;
74912;SDS011;63878;55.624;37.304;2024-01-06T04:23:17;13.10;;;4.63;;
74912;SDS011;63878;55.624;37.304;2024-01-06T04:33:19;9.75;;;4.85;;
74912;SDS011;63878;55.624;37.304;2024-01-06T04:43:20;20.63;;;6.33;;
74912;SDS011;63878;55.624;37.304;2024-01-06T04:53:20;10.75;;;5.15;;
74912;SDS011;63878;55.624;37.304;2024-01-06T05:03:21;12.88;;;4.93;;
74912;SDS011;63878;55.624;37.304;2024-01-06T05:13:21;11.27;;;5.22;;
74912;SDS011;63878;55.624;37.304;2024-01-06T05:23:22;12.65;;;5.72;;
74912;SDS011;63878;55.624;37.304;2024-01-06T05:33:23;13.30;;;5.53;;
74912;SDS011;63878;55.624;37.304;2024-01-06T05:43:23;16.60;;;6.55;;
74912;SDS011;63878;55.624;37.304;2024-01-06T05:53:25;11.18;;;5.45;;
74912;SDS011;63878;55.624;37.304;2024-01-06T06:03:25;9.93;;;4.60;;
74912;SDS011;63878;55.624;37.304;2024-01-06T06:13:27;10.75;;;4.65;;
74912;SDS011;63878;55.624;37.304;2024-01-06T06:23:28;11.15;;;5.05;;
74912;SDS011;63878;55.624;37.304;2024-01-06T06:33:29;8.98;;;4.65;;
74912;SDS011;63878;55.624;37.304;2024-01-06T06:43:30;9.50;;;3.80;;
74912;SDS011;63878;55.624;37.304;2024-01-06T06:53:31;12.10;;;4.27;;
74912;SDS011;63878;55.624;37.304;2024-01-06T07:03:31;7.85;;;3.45;;
74912;SDS011;63878;55.624;37.304;2024-01-06T07:13:31;10.83;;;3.73;;
74912;SDS011;63878;55.624;37.304;2024-01-06T07:23:32;9.85;;;3.95;;
74912;SDS011;63878;55.624;37.304;2024-01-06T07:33:32;4.53;;;2.15;;
74912;SDS011;63878;55.624;37.304;2024-01-06T07:43:33;11.52;;;3.90;;
74912;SDS011;63878;55.624;37.304;2024-01-06T07:53:33;17.55;;;5.63;;
74912;SDS011;63878;55.624;37.304;2024-01-06T08:03:34;7.40;;;3.75;;
74912;SDS011;63878;55.624;37.304;2024-01-06T08:13:35;14.80;;;4.37;;
74912;SDS011;63878;55.624;37.304;2024-01-06T08:23:35;15.80;;;6.32;;
74912;SDS011;63878;55.624;37.304;2024-01-06T08:33:35;12.98;;;4.65;;
74912;SDS011;63878;55.624;37.304;2024-01-06T08:43:36;12.10;;;4.80;;
74912;SDS011;63878;55.624;37.304;2024-01-06T08:53:37;14.97;;;4.40;;
74912;SDS011;63878;55.624;37.304;2024-01-06T09:03:37;17.13;;;6.47;;
74912;SDS011;63878;55.624;37.304;2024-01-06T09:13:39;10.15;;;3.53;;
74912;SDS011;63878;55.624;37.304;2024-01-06T09:23:39;20.45;;;7.45;;
74912;SDS011;63878;55.624;37.304;2024-01-06T09:33:40;5.90;;;2.90;;
74912;SDS011;63878;55.624;37.304;2024-01-06T09:43:40;16.15;;;5.97;;
74912;SDS011;63878;55.624;37.304;2024-01-06T09:53:43;15.77;;;6.88;;
74912;SDS011;63878;55.624;37.304;2024-01-06T10:03:56;13.18;;;5.72;;
74912;SDS011;63878;55.624;37.304;2024-01-06T10:13:57;21.60;;;7.05;;
74912;SDS011;63878;55.624;37.304;2024-01-06T10:23:57;12.98;;;5.80;;
74912;SDS011;63878;55.624;37.304;2024-01-06T10:33:58;12.45;;;4.82;;
74912;SDS011;63878;55.624;37.304;2024-01-06T10:43:58;15.77;;;6.22;;
74912;SDS011;63878;55.624;37.304;2024-01-06T11:04:02;22.52;;;7.38;;
74912;SDS011;63878;55.624;37.304;2024-01-06T11:14:24;19.42;;;7.72;;
74912;SDS011;63878;55.624;37.304;2024-01-06T11:24:25;25.92;;;10.63;;
74912;SDS011;63878;55.624;37.304;2024-01-06T11:44:42;22.98;;;9.50;;
74912;SDS011;63878;55.624;37.304;2024-01-06T11:54:44;18.77;;;9.38;;
74912;SDS011;63878;55.624;37.304;2024-01-06T12:04:52;20.98;;;8.38;;
74912;SDS011;63878;55.624;37.304;2024-01-06T12:14:53;22.30;;;8.65;;
74912;SDS011;63878;55.624;37.304;2024-01-06T12:24:53;16.98;;;7.88;;
74912;SDS011;63878;55.624;37.304;2024-01-06T12:34:54;23.30;;;9.27;;
74912;SDS011;63878;55.624;37.304;2024-01-06T12:44:55;24.70;;;9.37;;
74912;SDS011;63878;55.624;37.304;2024-01-06T12:54:55;21.38;;;8.10;;
74912;SDS011;63878;55.624;37.304;2024-01-06T13:04:56;19.38;;;7.45;;
74912;SDS011;63878;55.624;37.304;2024-01-06T13:14:56;13.55;;;6.50;;
74912;SDS011;63878;55.624;37.304;2024-01-06T13:24:57;18.95;;;6.22;;
74912;SDS011;63878;55.624;37.304;2024-01-06T13:34:58;18.02;;;7.85;;
74912;SDS011;63878;55.624;37.304;2024-01-06T13:44:59;22.25;;;9.70;;
74912;SDS011;63878;55.624;37.304;2024-01-06T13:55:01;25.70;;;10.40;;
74912;SDS011;63878;55.624;37.304;2024-01-06T14:05:01;23.27;;;8.40;;
74912;SDS011;63878;55.624;37.304;2024-01-06T14:15:02;21.98;;;8.43;;
74912;SDS011;63878;55.624;37.304;2024-01-06T14:25:03;21.17;;;8.30;;
74912;SDS011;63878;55.624;37.304;2024-01-06T14:35:05;21.40;;;8.88;;
74912;SDS011;63878;55.624;37.304;2024-01-06T14:45:06;29.00;;;11.40;;
74912;SDS011;63878;55.624;37.304;2024-01-06T14:55:07;30.48;;;13.35;;
74912;SDS011;63878;55.624;37.304;2024-01-06T15:05:08;24.38;;;9.10;;
74912;SDS011;63878;55.624;37.304;2024-01-06T15:15:09;29.40;;;13.07;;
74912;SDS011;63878;55.624;37.304;2024-01-06T15:33:26;17.10;;;8.97;;
74912;SDS011;63878;55.624;37.304;2024-01-06T15:43:26;29.10;;;9.77;;
74912;SDS011;63878;55.624;37.304;2024-01-06T15:53:28;26.45;;;10.70;;
74912;SDS011;63878;55.624;37.304;2024-01-06T16:03:29;23.85;;;9.85;;
74912;SDS011;63878;55.624;37.304;2024-01-06T16:13:29;23.20;;;9.73;;
74912;SDS011;63878;55.624;37.304;2024-01-06T16:23:30;25.48;;;10.68;;
74912;SDS011;63878;55.624;37.304;2024-01-06T16:33:31;27.98;;;13.95;;
74912;SDS011;63878;55.624;37.304;2024-01-06T16:43:34;26.67;;;9.60;;
74912;SDS011;63878;55.624;37.304;2024-01-06T16:53:35;22.30;;;9.18;;
74912;SDS011;63878;55.624;37.304;2024-01-06T17:03:35;34.93;;;10.53;;
74912;SDS011;63878;55.624;37.304;2024-01-06T17:13:36;21.30;;;9.77;;
74912;SDS011;63878;55.624;37.304;2024-01-06T17:23:36;20.63;;;8.20;;
74912;SDS011;63878;55.624;37.304;2024-01-06T17:33:37;11.17;;;5.83;;
74912;SDS011;63878;55.624;37.304;2024-01-06T17:43:37;24.77;;;9.40;;
74912;SDS011;63878;55.624;37.304;2024-01-06T17:53:38;11.45;;;5.60;;
74912;SDS011;63878;55.624;37.304;2024-01-06T18:03:38;26.13;;;11.35;;
74912;SDS011;63878;55.624;37.304;2024-01-06T18:13:39;20.73;;;8.70;;
74912;SDS011;63878;55.624;37.304;2024-01-06T18:23:40;29.27;;;11.17;;
74912;SDS011;63878;55.624;37.304;2024-01-06T18:33:40;24.05;;;9.45;;
74912;SDS011;63878;55.624;37.304;2024-01-06T18:43:41;20.03;;;6.17;;
74912;SDS011;63878;55.624;37.304;2024-01-06T18:53:41;22.15;;;9.88;;
74912;SDS011;63878;55.624;37.304;2024-01-06T19:03:42;8.63;;;2.33;;
74912;SDS011;63878;55.624;37.304;2024-01-06T19:13:44;25.08;;;11.02;;
74912;SDS011;63878;55.624;37.304;2024-01-06T19:23:45;20.38;;;8.60;;
74912;SDS011;63878;55.624;37.304;2024-01-06T19:33:46;12.85;;;5.55;;
74912;SDS011;63878;55.624;37.304;2024-01-06T19:43:46;26.75;;;13.23;;
74912;SDS011;63878;55.624;37.304;2024-01-06T19:53:47;29.25;;;12.20;;
74912;SDS011;63878;55.624;37.304;2024-01-06T20:03:48;25.23;;;10.77;;
74912;SDS011;63878;55.624;37.304;2024-01-06T20:13:48;32.08;;;14.18;;
74912;SDS011;63878;55.624;37.304;2024-01-06T20:23:50;25.20;;;11.57;;
74912;SDS011;63878;55.624;37.304;2024-01-06T20:33:50;32.50;;;13.50;;
74912;SDS011;63878;55.624;37.304;2024-01-06T20:43:51;26.35;;;13.93;;
74912;SDS011;63878;55.624;37.304;2024-01-06T20:53:51;31.73;;;13.73;;
74912;SDS011;63878;55.624;37.304;2024-01-06T21:03:52;36.78;;;16.38;;
74912;SDS011;63878;55.624;37.304;2024-01-06T21:13:53;30.52;;;15.75;;
74912;SDS011;63878;55.624;37.304;2024-01-06T21:23:54;29.27;;;14.00;;
74912;SDS011;63878;55.624;37.304;2024-01-06T21:33:55;23.52;;;12.27;;
74912;SDS011;63878;55.624;37.304;2024-01-06T21:43:55;26.27;;;10.73;;
74912;SDS011;63878;55.624;37.304;2024-01-06T21:53:56;25.58;;;10.93;;
74912;SDS011;63878;55.624;37.304;2024-01-06T22:03:56;21.77;;;11.03;;
74912;SDS011;63878;55.624;37.304;2024-01-06T22:13:57;27.60;;;11.00;;
74912;SDS011;63878;55.624;37.304;2024-01-06T22:23:57;19.83;;;10.70;;
74912;SDS011;63878;55.624;37.304;2024-01-06T22:33:58;20.40;;;8.80;;
74912;SDS011;63878;55.624;37.304;2024-01-06T22:43:58;24.38;;;9.45;;
74912;SDS011;63878;55.624;37.304;2024-01-06T22:53:59;19.47;;;9.53;;
74912;SDS011;63878;55.624;37.304;2024-01-06T23:03:59;19.70;;;9.57;;
74912;SDS011;63878;55.624;37.304;2024-01-06T23:14:00;17.92;;;8.90;;
74912;SDS011;63878;55.624;37.304;2024-01-06T23:24:00;13.77;;;8.02;;
74912;SDS011;63878;55.624;37.304;2024-01-06T23:34:00;19.20;;;8.55;;
74912;SDS011;63878;55.624;37.304;2024-01-06T23:44:01;14.20;;;6.40;;
74912;SDS011;63878;55.624;37.304;2024-01-06T23:54:02;14.60;;;7.37;;
